Flight Track Log - Related Links

Times and Time Zones

All times are in EDT time to prevent confusion due to time zone crossing. See the N724HS flight status page for this flight to view local times or setup timezone preferences in your user account.

Time Position Orientation Groundspeed Altitude Reporting Facility
EDT Latitude Longitude Course Direction KTS MPH feet Rate Location/Type
Wed 10:12:38 AM 28.5500 -81.3500 233° Southwest 121 139 600  Level Orlando TRACON
Wed 10:13:56 AM 28.5167 -81.4000 233° Southwest 182 209 2,000 1,174 Climbing Orlando TRACON
Wed 10:14:56 AM 28.4667 -81.4167 196° South 196 226 3,300 1,190 Climbing Orlando TRACON
Wed 10:15:57 AM 28.4667 -81.3500 90° East 222 255 4,400 1,488 Climbing Orlando TRACON
Wed 10:16:57 AM 28.4833 -81.2833 74° East 192 221 6,300 1,568 Climbing Orlando TRACON
Wed 10:18:53 AM 28.4789 -81.1753 93° East 195 224 9,000 1,382 Climbing Miami Center
Wed 10:19:55 AM 28.4514 -81.1222 121° Southeast 198 228 10,400 1,258 Climbing Miami Center
Wed 10:20:57 AM 28.4244 -81.0681 119° Southeast 197 227 11,600 1,113 Climbing Miami Center
Wed 10:21:59 AM 28.3958 -81.0125 120° Southeast 199 229 12,700 1,161 Climbing Miami Center
Wed 10:23:01 AM 28.3583 -80.9464 123° Southeast 206 237 14,000 1,073 Climbing Miami Center
Wed 10:24:02 AM 28.3186 -80.8983 133° Southeast 207 238 14,900 488 Climbing Miami Center
Wed 10:25:04 AM 28.2700 -80.8503 139° Southeast 229 264 15,000 48 Climbing Miami Center
Wed 10:26:06 AM 28.2122 -80.8022 144° Southeast 250 288 15,000  Level Miami Center
Wed 10:27:08 AM 28.1528 -80.7528 144° Southeast 258 297 15,000  Level Miami Center
Wed 10:28:09 AM 28.0836 -80.6983 145° Southeast 262 302 15,000  Level Miami Center
Wed 10:29:11 AM 28.0253 -80.6525 145° Southeast 262 302 15,000  Level Miami Center
Wed 10:30:13 AM 27.9633 -80.6036 145° Southeast 262 302 15,000  Level Miami Center
Wed 10:31:15 AM 27.9011 -80.5542 145° Southeast 262 302 15,000  Level Miami Center
Wed 10:32:16 AM 27.8397 -80.5056 145° Southeast 260 299 15,000  Level Miami Center
Wed 10:33:18 AM 27.7831 -80.4614 145° Southeast 258 297 15,000 -97 Level Miami Center
Wed 10:34:20 AM 27.7208 -80.4125 145° Southeast 258 297 14,800 -290 Descending Miami Center
Wed 10:35:22 AM 27.6561 -80.3617 145° Southeast 265 305 14,400 -390 Descending Miami Center
Wed 10:36:23 AM 27.5900 -80.3106 146° Southeast 273 314 14,000 -293 Descending Miami Center
Wed 10:37:25 AM 27.5264 -80.2600 145° Southeast 272 313 13,800 -290 Descending Miami Center
Wed 10:38:27 AM 27.4661 -80.2133 146° Southeast 271 312 13,400 -435 Descending Miami Center
Wed 10:39:29 AM 27.4006 -80.1619 145° Southeast 272 313 12,900 -484 Descending Miami Center
Wed 10:40:31 AM 27.3342 -80.1103 145° Southeast 274 315 12,400 -439 Descending Miami Center
Wed 10:41:32 AM 27.2681 -80.0589 145° Southeast 275 316 12,000 -244 Descending Miami Center
Wed 10:42:34 AM 27.2083 -80.0142 146° Southeast 270 311 11,900 -435 Descending Miami Center
Wed 10:43:36 AM 27.1319 -80.0047 174° South 265 305 11,100 -871 Descending Miami Center
Wed 10:44:38 AM 27.0542 -79.9975 175° South 266 306 10,100 -968 Descending Miami Center
Wed 10:45:40 AM 26.9781 -79.9906 175° South 265 305 9,100 -532 Descending Miami Center
Wed 10:46:42 AM 26.9036 -79.9842 176° South 259 298 9,000 -48 Descending Miami Center
Wed 10:47:44 AM 26.8317 -79.9772 175° South 248 285 9,000  Level Miami Center
Wed 10:48:45 AM 26.7653 -79.9714 176° South 247 284 9,000  Level Miami Center
Wed 10:49:47 AM 26.6961 -79.9650 175° South 247 284 9,000 -339 Level Miami Center
Wed 10:50:49 AM 26.6261 -79.9586 175° South 253 291 8,300 -825 Descending Miami Center
Wed 10:51:07 AM 26.6019 -79.9547 172° South 257 296 7,900 -968 Descending Miami Center
Wed 10:51:51 AM 26.5547 -79.9528 178° South 256 295 7,300 -806 Descending Miami Center
Wed 10:52:14 AM 26.5208 -79.9486 174° South 254 292 7,000 -290 Descending Miami Center
Wed 10:52:53 AM 26.4869 -79.9472 178° South 246 283 7,000  Level Miami Center
Wed 10:53:15 AM 26.4575 -79.9556 194° South 225 259 7,000  Level Miami Center
Wed 10:53:55 AM 26.4278 -79.9650 196° South 223 257 7,000  Level Miami Center
Wed 10:54:16 AM 26.3956 -79.9742 194° South 225 259 7,000  Level Miami Center
Wed 10:54:57 AM 26.3525 -79.9856 193° South 228 262 7,000 -98 Level Miami Center
Wed 10:55:17 AM 26.3294 -79.9925 195° South 229 264 6,900 -677 Descending Miami Center
Wed 10:55:59 AM 26.2961 -80.0019 194° South 213 245 6,300 -787 Descending Miami Center
Wed 10:56:18 AM 26.2764 -80.0069 193° South 199 229 6,100 -295 Descending Miami Center
Wed 10:57:00 AM 26.2425 -80.0167 194° South 200 230 6,000 -98 Descending Miami Center
Wed 10:57:19 AM 26.2211 -80.0214 191° South 198 228 6,000  Level Miami Center
Wed 10:58:02 AM 26.1869 -80.0325 196° South 204 235 6,000  Level Miami Center
Wed 10:58:20 AM 26.1656 -80.0381 193° South 206 237 6,000 97 Level Miami Center
Wed 10:59:04 AM 26.1564 -80.0750 255° West 203 234 6,100  Climbing Miami Center
Wed 10:59:21 AM 26.1556 -80.0978 268° West 201 231 6,000 -194 Descending Miami Center
Wed 11:00:06 AM 26.1497 -80.1328 259° West 188 216 5,900 -290 Descending Miami Center
Wed 11:00:23 AM 26.1375 -80.1544 238° Southwest 177 204 5,700 -484 Descending Miami Center
Wed 11:01:08 AM 26.1350 -80.1842 265° West 185 213 5,400 -689 Descending Miami Center
Wed 11:01:24 AM 26.1381 -80.2100 278° West 191 220 5,000 -1,065 Descending Miami Center
Wed 11:02:10 AM 26.1414 -80.2542 275° West 188 216 4,300 -556 Descending Miami Center
Wed 11:03:12 AM 26.1533 -80.3092 284° West 185 213 4,000 -394 Descending Miami Center
Wed 11:04:27 AM 26.1247 -80.3575 237° Southwest 180 207 3,400 -823 Descending Miami Center
Wed 11:05:16 AM 26.0917 -80.3494 168° South 180 207 2,300 -1,377 Descending Miami Center
Wed 11:05:28 AM 26.0842 -80.3358 122° Southeast 173 199 2,000 -484 Descending Miami Center
Wed 11:06:18 AM 26.0772 -80.3039 104° East 168 193 1,800 -246 Descending Miami Center
Wed 11:07:30 AM 26.0769 -80.2494 90° East 129 148 1,500 -496 Descending Miami Center
Wed 11:08:31 AM 26.0778 -80.2056 89° East 128 147 700 -531 Descending Miami Center
Wed 11:09:23 AM 26.0761 -80.1761 94° East 135 155 500 -231 Descending Miami Center
Wed 11:13:00 AM 26.0726 -80.1527 190° South  Level Estimated
Wed 11:20:00 AM 26.0667 -80.1500 North  Level FlightAware Approximate

Login

Don't have an account? Register now (free) for customized features, flight alerts, and more!